sensor_id;sensor_type;location;lat;lon;timestamp;P1;durP1;ratioP1;P2;durP2;ratioP2
10896;SDS011;5501;51.176;6.470;2024-02-28T00:02:54;26.90;;;13.05;;
10896;SDS011;5501;51.176;6.470;2024-02-28T00:07:56;32.03;;;13.18;;
10896;SDS011;5501;51.176;6.470;2024-02-28T00:12:58;32.47;;;16.33;;
10896;SDS011;5501;51.176;6.470;2024-02-28T00:18:00;37.65;;;14.45;;
10896;SDS011;5501;51.176;6.470;2024-02-28T00:23:01;36.67;;;15.95;;
10896;SDS011;5501;51.176;6.470;2024-02-28T00:28:03;37.22;;;17.45;;
10896;SDS011;5501;51.176;6.470;2024-02-28T00:33:05;36.95;;;17.50;;
10896;SDS011;5501;51.176;6.470;2024-02-28T00:38:06;28.50;;;14.13;;
10896;SDS011;5501;51.176;6.470;2024-02-28T00:43:08;25.05;;;13.65;;
10896;SDS011;5501;51.176;6.470;2024-02-28T00:48:09;28.88;;;13.60;;
10896;SDS011;5501;51.176;6.470;2024-02-28T00:53:11;33.65;;;14.05;;
10896;SDS011;5501;51.176;6.470;2024-02-28T00:58:12;26.65;;;14.23;;
10896;SDS011;5501;51.176;6.470;2024-02-28T01:03:14;28.88;;;14.82;;
10896;SDS011;5501;51.176;6.470;2024-02-28T01:08:16;28.08;;;14.95;;
10896;SDS011;5501;51.176;6.470;2024-02-28T01:13:18;31.08;;;14.60;;
10896;SDS011;5501;51.176;6.470;2024-02-28T01:18:20;33.00;;;15.32;;
10896;SDS011;5501;51.176;6.470;2024-02-28T01:23:21;24.42;;;13.35;;
10896;SDS011;5501;51.176;6.470;2024-02-28T01:28:23;28.65;;;12.98;;
10896;SDS011;5501;51.176;6.470;2024-02-28T01:33:24;26.13;;;13.13;;
10896;SDS011;5501;51.176;6.470;2024-02-28T01:38:26;27.55;;;12.93;;
10896;SDS011;5501;51.176;6.470;2024-02-28T01:43:28;23.17;;;11.77;;
10896;SDS011;5501;51.176;6.470;2024-02-28T01:48:29;29.60;;;13.10;;
10896;SDS011;5501;51.176;6.470;2024-02-28T01:53:31;25.98;;;11.88;;
10896;SDS011;5501;51.176;6.470;2024-02-28T01:58:32;27.60;;;12.15;;
10896;SDS011;5501;51.176;6.470;2024-02-28T02:03:34;26.25;;;11.32;;
10896;SDS011;5501;51.176;6.470;2024-02-28T02:08:36;26.00;;;12.38;;
10896;SDS011;5501;51.176;6.470;2024-02-28T02:13:50;22.42;;;11.35;;
10896;SDS011;5501;51.176;6.470;2024-02-28T02:18:52;31.55;;;14.02;;
10896;SDS011;5501;51.176;6.470;2024-02-28T02:23:54;36.47;;;16.50;;
10896;SDS011;5501;51.176;6.470;2024-02-28T02:28:55;46.42;;;18.50;;
10896;SDS011;5501;51.176;6.470;2024-02-28T02:33:57;51.28;;;17.92;;
10896;SDS011;5501;51.176;6.470;2024-02-28T02:38:58;47.53;;;19.08;;
10896;SDS011;5501;51.176;6.470;2024-02-28T02:44:00;50.15;;;20.92;;
10896;SDS011;5501;51.176;6.470;2024-02-28T02:49:01;43.05;;;21.45;;
10896;SDS011;5501;51.176;6.470;2024-02-28T02:54:03;52.88;;;22.42;;
10896;SDS011;5501;51.176;6.470;2024-02-28T02:59:04;66.95;;;22.88;;
10896;SDS011;5501;51.176;6.470;2024-02-28T03:04:06;52.00;;;20.73;;
10896;SDS011;5501;51.176;6.470;2024-02-28T03:09:07;45.72;;;21.45;;
10896;SDS011;5501;51.176;6.470;2024-02-28T03:14:09;50.67;;;21.65;;
10896;SDS011;5501;51.176;6.470;2024-02-28T03:19:10;37.15;;;18.23;;
10896;SDS011;5501;51.176;6.470;2024-02-28T03:24:12;44.65;;;21.05;;
10896;SDS011;5501;51.176;6.470;2024-02-28T03:29:13;51.10;;;19.30;;
10896;SDS011;5501;51.176;6.470;2024-02-28T03:34:15;46.95;;;20.58;;
10896;SDS011;5501;51.176;6.470;2024-02-28T03:39:16;38.28;;;18.45;;
10896;SDS011;5501;51.176;6.470;2024-02-28T03:44:18;58.75;;;23.92;;
10896;SDS011;5501;51.176;6.470;2024-02-28T03:49:20;58.53;;;23.05;;
10896;SDS011;5501;51.176;6.470;2024-02-28T03:54:21;61.17;;;23.05;;
10896;SDS011;5501;51.176;6.470;2024-02-28T03:59:23;63.55;;;20.90;;
10896;SDS011;5501;51.176;6.470;2024-02-28T04:04:25;49.92;;;21.08;;
10896;SDS011;5501;51.176;6.470;2024-02-28T04:09:26;60.22;;;20.90;;
10896;SDS011;5501;51.176;6.470;2024-02-28T04:14:28;54.15;;;21.88;;
10896;SDS011;5501;51.176;6.470;2024-02-28T04:19:32;56.05;;;21.17;;
10896;SDS011;5501;51.176;6.470;2024-02-28T04:24:35;50.20;;;21.45;;
10896;SDS011;5501;51.176;6.470;2024-02-28T04:29:36;63.95;;;21.73;;
10896;SDS011;5501;51.176;6.470;2024-02-28T04:34:39;67.43;;;19.67;;
10896;SDS011;5501;51.176;6.470;2024-02-28T04:39:40;55.33;;;19.13;;
10896;SDS011;5501;51.176;6.470;2024-02-28T04:44:42;41.35;;;17.02;;
10896;SDS011;5501;51.176;6.470;2024-02-28T04:49:43;53.50;;;19.15;;
10896;SDS011;5501;51.176;6.470;2024-02-28T04:54:45;42.90;;;18.95;;
10896;SDS011;5501;51.176;6.470;2024-02-28T04:59:47;57.75;;;20.17;;
10896;SDS011;5501;51.176;6.470;2024-02-28T05:04:48;57.35;;;21.67;;
10896;SDS011;5501;51.176;6.470;2024-02-28T05:09:50;68.80;;;22.40;;
10896;SDS011;5501;51.176;6.470;2024-02-28T05:14:51;61.55;;;22.77;;
10896;SDS011;5501;51.176;6.470;2024-02-28T05:19:55;58.58;;;22.02;;
10896;SDS011;5501;51.176;6.470;2024-02-28T05:24:58;61.97;;;23.15;;
10896;SDS011;5501;51.176;6.470;2024-02-28T05:30:00;64.78;;;22.08;;
10896;SDS011;5501;51.176;6.470;2024-02-28T05:35:03;61.13;;;20.92;;
10896;SDS011;5501;51.176;6.470;2024-02-28T05:40:06;72.72;;;22.63;;
10896;SDS011;5501;51.176;6.470;2024-02-28T05:45:08;60.60;;;22.48;;
10896;SDS011;5501;51.176;6.470;2024-02-28T05:50:10;64.10;;;24.63;;
10896;SDS011;5501;51.176;6.470;2024-02-28T05:55:11;59.97;;;24.60;;
10896;SDS011;5501;51.176;6.470;2024-02-28T06:00:13;60.63;;;24.25;;
10896;SDS011;5501;51.176;6.470;2024-02-28T06:05:15;59.40;;;22.77;;
10896;SDS011;5501;51.176;6.470;2024-02-28T06:10:16;61.22;;;22.50;;
10896;SDS011;5501;51.176;6.470;2024-02-28T06:15:18;68.90;;;24.05;;
10896;SDS011;5501;51.176;6.470;2024-02-28T06:20:20;71.93;;;23.80;;
10896;SDS011;5501;51.176;6.470;2024-02-28T06:25:21;64.63;;;23.48;;
10896;SDS011;5501;51.176;6.470;2024-02-28T06:30:24;56.60;;;21.35;;
10896;SDS011;5501;51.176;6.470;2024-02-28T06:35:26;63.72;;;23.13;;
10896;SDS011;5501;51.176;6.470;2024-02-28T06:40:28;56.03;;;21.83;;
10896;SDS011;5501;51.176;6.470;2024-02-28T06:45:33;61.90;;;22.25;;
10896;SDS011;5501;51.176;6.470;2024-02-28T06:50:35;68.32;;;27.20;;
10896;SDS011;5501;51.176;6.470;2024-02-28T06:55:36;63.67;;;22.83;;
10896;SDS011;5501;51.176;6.470;2024-02-28T07:00:38;59.83;;;22.02;;
10896;SDS011;5501;51.176;6.470;2024-02-28T07:05:39;65.90;;;20.88;;
10896;SDS011;5501;51.176;6.470;2024-02-28T07:10:41;58.63;;;22.55;;
10896;SDS011;5501;51.176;6.470;2024-02-28T07:15:45;54.72;;;20.45;;
10896;SDS011;5501;51.176;6.470;2024-02-28T07:20:46;61.25;;;23.00;;
10896;SDS011;5501;51.176;6.470;2024-02-28T07:25:48;54.13;;;21.30;;
10896;SDS011;5501;51.176;6.470;2024-02-28T07:30:49;53.55;;;19.92;;
10896;SDS011;5501;51.176;6.470;2024-02-28T07:35:51;50.35;;;18.67;;
10896;SDS011;5501;51.176;6.470;2024-02-28T07:40:53;48.95;;;19.02;;
10896;SDS011;5501;51.176;6.470;2024-02-28T07:45:55;42.05;;;18.38;;
10896;SDS011;5501;51.176;6.470;2024-02-28T07:50:56;54.47;;;19.65;;
10896;SDS011;5501;51.176;6.470;2024-02-28T07:55:58;42.60;;;18.33;;
10896;SDS011;5501;51.176;6.470;2024-02-28T08:00:59;57.40;;;20.50;;
10896;SDS011;5501;51.176;6.470;2024-02-28T08:06:01;55.15;;;18.13;;
10896;SDS011;5501;51.176;6.470;2024-02-28T08:11:03;65.13;;;20.13;;
10896;SDS011;5501;51.176;6.470;2024-02-28T08:16:04;40.42;;;17.05;;
10896;SDS011;5501;51.176;6.470;2024-02-28T08:21:08;50.55;;;18.80;;
10896;SDS011;5501;51.176;6.470;2024-02-28T08:26:10;56.65;;;19.02;;
10896;SDS011;5501;51.176;6.470;2024-02-28T08:31:12;43.58;;;16.25;;
10896;SDS011;5501;51.176;6.470;2024-02-28T08:36:13;41.78;;;16.95;;
10896;SDS011;5501;51.176;6.470;2024-02-28T08:41:16;46.72;;;16.33;;
10896;SDS011;5501;51.176;6.470;2024-02-28T08:46:18;43.13;;;18.63;;
10896;SDS011;5501;51.176;6.470;2024-02-28T08:51:20;41.53;;;16.98;;
10896;SDS011;5501;51.176;6.470;2024-02-28T08:56:21;47.58;;;16.15;;
10896;SDS011;5501;51.176;6.470;2024-02-28T09:01:22;49.92;;;17.58;;
10896;SDS011;5501;51.176;6.470;2024-02-28T09:06:24;40.55;;;15.15;;
10896;SDS011;5501;51.176;6.470;2024-02-28T09:11:26;41.63;;;17.45;;
10896;SDS011;5501;51.176;6.470;2024-02-28T09:16:27;40.17;;;15.77;;
10896;SDS011;5501;51.176;6.470;2024-02-28T09:21:30;39.90;;;17.17;;
10896;SDS011;5501;51.176;6.470;2024-02-28T09:26:31;44.83;;;16.63;;
10896;SDS011;5501;51.176;6.470;2024-02-28T09:31:33;35.22;;;13.88;;
10896;SDS011;5501;51.176;6.470;2024-02-28T09:36:41;35.70;;;14.35;;
10896;SDS011;5501;51.176;6.470;2024-02-28T09:41:47;39.50;;;14.45;;
10896;SDS011;5501;51.176;6.470;2024-02-28T09:46:51;32.80;;;13.93;;
10896;SDS011;5501;51.176;6.470;2024-02-28T09:51:53;30.17;;;13.32;;
10896;SDS011;5501;51.176;6.470;2024-02-28T09:56:54;29.77;;;13.18;;
10896;SDS011;5501;51.176;6.470;2024-02-28T10:01:56;25.02;;;11.48;;
10896;SDS011;5501;51.176;6.470;2024-02-28T10:06:59;25.58;;;12.30;;
10896;SDS011;5501;51.176;6.470;2024-02-28T10:12:11;30.25;;;12.65;;
10896;SDS011;5501;51.176;6.470;2024-02-28T10:17:12;35.38;;;13.70;;
10896;SDS011;5501;51.176;6.470;2024-02-28T10:22:14;28.30;;;12.88;;
10896;SDS011;5501;51.176;6.470;2024-02-28T10:27:16;29.38;;;13.32;;
10896;SDS011;5501;51.176;6.470;2024-02-28T10:32:18;29.42;;;13.60;;
10896;SDS011;5501;51.176;6.470;2024-02-28T10:37:19;22.33;;;11.57;;
10896;SDS011;5501;51.176;6.470;2024-02-28T10:42:22;31.35;;;11.60;;
10896;SDS011;5501;51.176;6.470;2024-02-28T10:47:28;23.98;;;11.70;;
10896;SDS011;5501;51.176;6.470;2024-02-28T10:52:29;27.33;;;12.20;;
10896;SDS011;5501;51.176;6.470;2024-02-28T10:57:36;22.08;;;11.02;;
10896;SDS011;5501;51.176;6.470;2024-02-28T11:02:38;24.02;;;11.15;;
10896;SDS011;5501;51.176;6.470;2024-02-28T11:07:40;31.40;;;11.73;;
10896;SDS011;5501;51.176;6.470;2024-02-28T11:12:43;20.42;;;10.75;;
10896;SDS011;5501;51.176;6.470;2024-02-28T11:18:06;17.75;;;9.82;;
10896;SDS011;5501;51.176;6.470;2024-02-28T11:23:09;23.30;;;10.70;;
10896;SDS011;5501;51.176;6.470;2024-02-28T11:28:11;25.42;;;10.52;;
10896;SDS011;5501;51.176;6.470;2024-02-28T11:33:12;24.98;;;10.48;;
10896;SDS011;5501;51.176;6.470;2024-02-28T11:38:14;21.05;;;10.80;;
10896;SDS011;5501;51.176;6.470;2024-02-28T11:43:16;22.90;;;9.65;;
10896;SDS011;5501;51.176;6.470;2024-02-28T11:48:20;26.30;;;9.32;;
10896;SDS011;5501;51.176;6.470;2024-02-28T11:53:21;23.15;;;9.60;;
10896;SDS011;5501;51.176;6.470;2024-02-28T11:58:24;16.95;;;8.95;;
10896;SDS011;5501;51.176;6.470;2024-02-28T12:03:26;19.65;;;9.05;;
10896;SDS011;5501;51.176;6.470;2024-02-28T12:08:28;21.17;;;9.07;;
10896;SDS011;5501;51.176;6.470;2024-02-28T12:13:31;20.85;;;7.95;;
10896;SDS011;5501;51.176;6.470;2024-02-28T12:18:32;15.57;;;7.78;;
10896;SDS011;5501;51.176;6.470;2024-02-28T12:23:34;16.67;;;9.02;;
10896;SDS011;5501;51.176;6.470;2024-02-28T12:28:35;14.00;;;7.15;;
10896;SDS011;5501;51.176;6.470;2024-02-28T12:33:37;17.85;;;7.45;;
10896;SDS011;5501;51.176;6.470;2024-02-28T12:38:38;22.25;;;8.05;;
10896;SDS011;5501;51.176;6.470;2024-02-28T12:43:41;15.60;;;7.38;;
10896;SDS011;5501;51.176;6.470;2024-02-28T12:48:43;17.67;;;7.03;;
10896;SDS011;5501;51.176;6.470;2024-02-28T12:53:45;15.77;;;7.20;;
10896;SDS011;5501;51.176;6.470;2024-02-28T12:58:52;18.20;;;6.75;;
10896;SDS011;5501;51.176;6.470;2024-02-28T13:03:53;17.42;;;6.57;;
10896;SDS011;5501;51.176;6.470;2024-02-28T13:08:55;19.63;;;7.90;;
10896;SDS011;5501;51.176;6.470;2024-02-28T13:13:57;16.15;;;7.50;;
10896;SDS011;5501;51.176;6.470;2024-02-28T13:18:58;14.95;;;6.45;;
10896;SDS011;5501;51.176;6.470;2024-02-28T13:24:01;14.48;;;6.18;;
10896;SDS011;5501;51.176;6.470;2024-02-28T13:29:02;14.70;;;6.47;;
10896;SDS011;5501;51.176;6.470;2024-02-28T13:34:04;16.08;;;6.93;;
10896;SDS011;5501;51.176;6.470;2024-02-28T13:39:06;12.35;;;6.53;;
10896;SDS011;5501;51.176;6.470;2024-02-28T13:44:08;18.45;;;6.82;;
10896;SDS011;5501;51.176;6.470;2024-02-28T13:49:10;13.70;;;6.05;;
10896;SDS011;5501;51.176;6.470;2024-02-28T13:54:13;12.88;;;5.55;;
10896;SDS011;5501;51.176;6.470;2024-02-28T13:59:15;15.07;;;6.00;;
10896;SDS011;5501;51.176;6.470;2024-02-28T14:04:16;12.07;;;5.10;;
10896;SDS011;5501;51.176;6.470;2024-02-28T14:09:18;11.35;;;5.50;;
10896;SDS011;5501;51.176;6.470;2024-02-28T14:14:19;12.60;;;5.65;;
10896;SDS011;5501;51.176;6.470;2024-02-28T14:19:21;12.82;;;5.28;;
10896;SDS011;5501;51.176;6.470;2024-02-28T14:24:22;9.63;;;4.88;;
10896;SDS011;5501;51.176;6.470;2024-02-28T14:29:24;18.55;;;6.10;;
10896;SDS011;5501;51.176;6.470;2024-02-28T14:34:25;12.50;;;5.93;;
10896;SDS011;5501;51.176;6.470;2024-02-28T14:39:27;13.35;;;5.15;;
10896;SDS011;5501;51.176;6.470;2024-02-28T14:44:28;8.98;;;4.00;;
10896;SDS011;5501;51.176;6.470;2024-02-28T14:49:30;10.07;;;4.63;;
10896;SDS011;5501;51.176;6.470;2024-02-28T14:54:31;13.40;;;4.55;;
10896;SDS011;5501;51.176;6.470;2024-02-28T14:59:33;13.13;;;5.55;;
10896;SDS011;5501;51.176;6.470;2024-02-28T15:04:34;8.32;;;4.28;;
10896;SDS011;5501;51.176;6.470;2024-02-28T15:09:36;9.70;;;4.43;;
10896;SDS011;5501;51.176;6.470;2024-02-28T15:14:41;10.43;;;4.35;;
10896;SDS011;5501;51.176;6.470;2024-02-28T15:19:42;8.35;;;4.47;;
10896;SDS011;5501;51.176;6.470;2024-02-28T15:24:44;15.05;;;5.00;;
10896;SDS011;5501;51.176;6.470;2024-02-28T15:29:45;7.03;;;3.95;;
10896;SDS011;5501;51.176;6.470;2024-02-28T15:34:47;8.40;;;3.90;;
10896;SDS011;5501;51.176;6.470;2024-02-28T15:39:48;9.40;;;4.07;;
10896;SDS011;5501;51.176;6.470;2024-02-28T15:44:51;8.13;;;3.97;;
10896;SDS011;5501;51.176;6.470;2024-02-28T15:49:52;6.75;;;3.08;;
10896;SDS011;5501;51.176;6.470;2024-02-28T15:54:55;8.57;;;3.50;;
10896;SDS011;5501;51.176;6.470;2024-02-28T15:59:58;9.23;;;3.88;;
10896;SDS011;5501;51.176;6.470;2024-02-28T16:05:00;7.68;;;3.85;;
10896;SDS011;5501;51.176;6.470;2024-02-28T16:10:02;10.73;;;3.95;;
10896;SDS011;5501;51.176;6.470;2024-02-28T16:15:04;8.80;;;3.83;;
10896;SDS011;5501;51.176;6.470;2024-02-28T16:20:09;8.63;;;3.97;;
10896;SDS011;5501;51.176;6.470;2024-02-28T16:25:10;7.22;;;3.33;;
10896;SDS011;5501;51.176;6.470;2024-02-28T16:30:12;12.38;;;4.20;;
10896;SDS011;5501;51.176;6.470;2024-02-28T16:35:14;10.77;;;4.07;;
10896;SDS011;5501;51.176;6.470;2024-02-28T16:40:15;8.43;;;3.67;;
10896;SDS011;5501;51.176;6.470;2024-02-28T16:45:17;6.38;;;3.80;;
10896;SDS011;5501;51.176;6.470;2024-02-28T16:50:19;8.73;;;3.55;;
10896;SDS011;5501;51.176;6.470;2024-02-28T16:55:21;6.65;;;3.70;;
10896;SDS011;5501;51.176;6.470;2024-02-28T17:00:22;10.75;;;4.43;;
10896;SDS011;5501;51.176;6.470;2024-02-28T17:05:25;9.23;;;4.30;;
10896;SDS011;5501;51.176;6.470;2024-02-28T17:10:27;8.27;;;5.03;;
10896;SDS011;5501;51.176;6.470;2024-02-28T17:15:29;8.63;;;4.60;;
10896;SDS011;5501;51.176;6.470;2024-02-28T17:20:31;10.90;;;4.75;;
10896;SDS011;5501;51.176;6.470;2024-02-28T17:25:32;11.57;;;5.38;;
10896;SDS011;5501;51.176;6.470;2024-02-28T17:30:34;13.85;;;5.40;;
10896;SDS011;5501;51.176;6.470;2024-02-28T17:35:35;9.27;;;5.07;;
10896;SDS011;5501;51.176;6.470;2024-02-28T17:40:37;8.25;;;4.70;;
10896;SDS011;5501;51.176;6.470;2024-02-28T17:45:38;10.00;;;4.93;;
10896;SDS011;5501;51.176;6.470;2024-02-28T17:50:40;8.75;;;5.38;;
10896;SDS011;5501;51.176;6.470;2024-02-28T17:55:41;9.43;;;4.75;;
10896;SDS011;5501;51.176;6.470;2024-02-28T18:00:43;7.60;;;4.43;;
10896;SDS011;5501;51.176;6.470;2024-02-28T18:05:47;7.13;;;4.32;;
10896;SDS011;5501;51.176;6.470;2024-02-28T18:10:49;12.23;;;4.80;;
10896;SDS011;5501;51.176;6.470;2024-02-28T18:15:50;13.55;;;5.35;;
10896;SDS011;5501;51.176;6.470;2024-02-28T18:20:53;19.20;;;5.53;;
10896;SDS011;5501;51.176;6.470;2024-02-28T18:25:55;11.90;;;4.40;;
10896;SDS011;5501;51.176;6.470;2024-02-28T18:30:56;10.25;;;4.85;;
10896;SDS011;5501;51.176;6.470;2024-02-28T18:35:58;12.73;;;4.80;;
10896;SDS011;5501;51.176;6.470;2024-02-28T18:40:59;8.77;;;4.85;;
10896;SDS011;5501;51.176;6.470;2024-02-28T18:46:02;12.98;;;5.10;;
10896;SDS011;5501;51.176;6.470;2024-02-28T18:51:04;10.15;;;4.50;;
10896;SDS011;5501;51.176;6.470;2024-02-28T18:56:06;11.73;;;5.38;;
10896;SDS011;5501;51.176;6.470;2024-02-28T19:01:07;11.65;;;5.43;;
10896;SDS011;5501;51.176;6.470;2024-02-28T19:06:11;13.63;;;5.90;;
10896;SDS011;5501;51.176;6.470;2024-02-28T19:11:13;10.63;;;5.30;;
10896;SDS011;5501;51.176;6.470;2024-02-28T19:16:15;11.93;;;5.60;;
10896;SDS011;5501;51.176;6.470;2024-02-28T19:21:17;6.43;;;4.13;;
10896;SDS011;5501;51.176;6.470;2024-02-28T19:26:18;6.22;;;3.67;;
10896;SDS011;5501;51.176;6.470;2024-02-28T19:31:20;12.63;;;4.68;;
10896;SDS011;5501;51.176;6.470;2024-02-28T19:36:21;11.10;;;4.75;;
10896;SDS011;5501;51.176;6.470;2024-02-28T19:41:23;6.45;;;3.88;;
10896;SDS011;5501;51.176;6.470;2024-02-28T19:46:24;15.02;;;4.43;;
10896;SDS011;5501;51.176;6.470;2024-02-28T19:51:26;12.15;;;5.28;;
10896;SDS011;5501;51.176;6.470;2024-02-28T19:56:27;7.60;;;4.20;;
10896;SDS011;5501;51.176;6.470;2024-02-28T20:01:29;8.90;;;4.53;;
10896;SDS011;5501;51.176;6.470;2024-02-28T20:06:31;8.98;;;4.15;;
10896;SDS011;5501;51.176;6.470;2024-02-28T20:11:33;13.10;;;4.90;;
10896;SDS011;5501;51.176;6.470;2024-02-28T20:16:34;9.40;;;4.53;;
10896;SDS011;5501;51.176;6.470;2024-02-28T20:21:41;15.50;;;5.35;;
10896;SDS011;5501;51.176;6.470;2024-02-28T20:26:43;11.73;;;5.35;;
10896;SDS011;5501;51.176;6.470;2024-02-28T20:31:44;18.65;;;5.20;;
10896;SDS011;5501;51.176;6.470;2024-02-28T20:36:46;13.65;;;5.82;;
10896;SDS011;5501;51.176;6.470;2024-02-28T20:41:48;14.32;;;5.80;;
10896;SDS011;5501;51.176;6.470;2024-02-28T20:46:49;10.30;;;5.90;;
10896;SDS011;5501;51.176;6.470;2024-02-28T20:51:51;13.27;;;7.38;;
10896;SDS011;5501;51.176;6.470;2024-02-28T20:56:53;14.88;;;6.00;;
10896;SDS011;5501;51.176;6.470;2024-02-28T21:02:10;12.20;;;5.78;;
10896;SDS011;5501;51.176;6.470;2024-02-28T21:07:11;13.68;;;5.47;;
10896;SDS011;5501;51.176;6.470;2024-02-28T21:12:14;12.13;;;5.82;;
10896;SDS011;5501;51.176;6.470;2024-02-28T21:17:17;16.17;;;6.20;;
10896;SDS011;5501;51.176;6.470;2024-02-28T21:22:20;19.25;;;6.90;;
10896;SDS011;5501;51.176;6.470;2024-02-28T21:27:21;10.18;;;5.28;;
10896;SDS011;5501;51.176;6.470;2024-02-28T21:32:23;10.80;;;6.25;;
10896;SDS011;5501;51.176;6.470;2024-02-28T21:37:25;14.13;;;7.10;;
10896;SDS011;5501;51.176;6.470;2024-02-28T21:42:27;13.75;;;6.25;;
10896;SDS011;5501;51.176;6.470;2024-02-28T21:47:29;10.93;;;6.75;;
10896;SDS011;5501;51.176;6.470;2024-02-28T21:52:31;11.13;;;5.70;;
10896;SDS011;5501;51.176;6.470;2024-02-28T21:57:32;16.65;;;5.15;;
10896;SDS011;5501;51.176;6.470;2024-02-28T22:02:34;12.05;;;5.22;;
10896;SDS011;5501;51.176;6.470;2024-02-28T22:07:36;10.23;;;5.18;;
10896;SDS011;5501;51.176;6.470;2024-02-28T22:12:37;13.35;;;5.25;;
10896;SDS011;5501;51.176;6.470;2024-02-28T22:17:40;15.60;;;6.80;;
10896;SDS011;5501;51.176;6.470;2024-02-28T22:22:42;9.30;;;4.80;;
10896;SDS011;5501;51.176;6.470;2024-02-28T22:27:44;12.02;;;5.45;;
10896;SDS011;5501;51.176;6.470;2024-02-28T22:32:45;12.57;;;5.82;;
10896;SDS011;5501;51.176;6.470;2024-02-28T22:37:47;9.85;;;5.68;;
10896;SDS011;5501;51.176;6.470;2024-02-28T22:42:48;11.25;;;4.57;;
10896;SDS011;5501;51.176;6.470;2024-02-28T22:47:50;10.70;;;5.13;;
10896;SDS011;5501;51.176;6.470;2024-02-28T22:52:52;10.93;;;5.35;;
10896;SDS011;5501;51.176;6.470;2024-02-28T22:57:53;7.57;;;4.82;;
10896;SDS011;5501;51.176;6.470;2024-02-28T23:02:56;11.07;;;4.95;;
10896;SDS011;5501;51.176;6.470;2024-02-28T23:07:58;6.22;;;3.65;;
10896;SDS011;5501;51.176;6.470;2024-02-28T23:13:01;10.23;;;3.97;;
10896;SDS011;5501;51.176;6.470;2024-02-28T23:18:03;10.52;;;3.50;;
10896;SDS011;5501;51.176;6.470;2024-02-28T23:23:06;7.13;;;3.58;;
10896;SDS011;5501;51.176;6.470;2024-02-28T23:28:07;4.72;;;2.97;;
10896;SDS011;5501;51.176;6.470;2024-02-28T23:33:09;8.18;;;4.05;;
10896;SDS011;5501;51.176;6.470;2024-02-28T23:38:11;6.05;;;3.20;;
10896;SDS011;5501;51.176;6.470;2024-02-28T23:43:12;8.18;;;3.70;;
10896;SDS011;5501;51.176;6.470;2024-02-28T23:48:14;5.03;;;3.20;;
10896;SDS011;5501;51.176;6.470;2024-02-28T23:53:15;8.50;;;4.65;;
10896;SDS011;5501;51.176;6.470;2024-02-28T23:58:17;5.85;;;3.38;;
